Lindsay, Oklahoma
Current Conditions -  °F | °C
As of 4:35 PM on Sunday 23 Nov 2014 (Local Time) from KPVJ Reporting Station
Overcast Overcast  
Wind Chill: 60°   Ceiling: 6500
Heat Index: 60°   Visibility: 10mi
Dew Point: 46°   Wind: 15mph
Humidity: 58%   Direction: 320°NW
Pressure: 29.42"   Gusts: 25mph
Location:  34.83°N, 97.6°W
Report Text: KPVJ 232235Z AUTO 32013G22KT 10SM SCT046 SCT050 OVC065 16/08 A2942 RMK AO2 T01580076
Loading
Personal Weather Stations






























Interactive Weather Map New forecast layout! Learn more

10-Day Weather Forecast

Advertisements
Track Severe Weather on mobile